Feesburg, Ohio
Current Conditions -  °F | °C
As of 11:15 PM on Friday 31 Oct 2014 (Local Time) from KFGX Reporting Station
Moderate Rain Moderate Rain  
Wind Chill: 29°   Ceiling: 500
Heat Index: 35°   Visibility: 5mi
Dew Point: 34°   Wind: 8mph
Humidity: 97%   Direction: 300°WNW
Pressure: 29.97"   Gusts: NA
Location:  38.88°N, 84°W
Report Text: KFGX 010315Z AUTO 30007KT 5SM RA OVC005 02/01 A2997 RMK AO2 T00180013
Loading
Personal Weather Stations






























Interactive Weather Map
Tropical Storm Tracking
New forecast layout! Learn more

10-Day Weather Forecast

Advertisements
Track Severe Weather on mobile